sensor_id;sensor_type;location;lat;lon;timestamp;pressure;altitude;pressure_sealevel;temperature;humidity
34482;BME280;20720;48.886;9.388;2024-01-30T00:02:05;99760.19;;;5.36;100.00
34482;BME280;20720;48.886;9.388;2024-01-30T00:04:30;99760.25;;;5.46;100.00
34482;BME280;20720;48.886;9.388;2024-01-30T00:06:55;99761.22;;;5.45;100.00
34482;BME280;20720;48.886;9.388;2024-01-30T00:09:20;99752.56;;;5.44;100.00
34482;BME280;20720;48.886;9.388;2024-01-30T00:11:46;99753.63;;;5.42;100.00
34482;BME280;20720;48.886;9.388;2024-01-30T00:14:11;99755.22;;;5.24;100.00
34482;BME280;20720;48.886;9.388;2024-01-30T00:16:37;99753.94;;;5.48;100.00
34482;BME280;20720;48.886;9.388;2024-01-30T00:19:02;99749.16;;;5.53;100.00
34482;BME280;20720;48.886;9.388;2024-01-30T00:21:28;99757.69;;;5.25;100.00
34482;BME280;20720;48.886;9.388;2024-01-30T00:23:54;99753.97;;;5.18;100.00
34482;BME280;20720;48.886;9.388;2024-01-30T00:26:19;99753.41;;;5.24;100.00
34482;BME280;20720;48.886;9.388;2024-01-30T00:28:44;99752.84;;;5.51;100.00
34482;BME280;20720;48.886;9.388;2024-01-30T00:31:09;99750.00;;;5.54;100.00
34482;BME280;20720;48.886;9.388;2024-01-30T00:33:41;99742.16;;;5.14;100.00
34482;BME280;20720;48.886;9.388;2024-01-30T00:36:07;99747.13;;;4.76;100.00
34482;BME280;20720;48.886;9.388;2024-01-30T00:38:33;99754.06;;;5.17;100.00
34482;BME280;20720;48.886;9.388;2024-01-30T00:40:58;99757.72;;;5.35;100.00
34482;BME280;20720;48.886;9.388;2024-01-30T00:43:24;99751.38;;;5.58;100.00
34482;BME280;20720;48.886;9.388;2024-01-30T00:45:52;99753.44;;;5.64;100.00
34482;BME280;20720;48.886;9.388;2024-01-30T00:48:17;99753.50;;;5.13;100.00
34482;BME280;20720;48.886;9.388;2024-01-30T00:50:43;99750.09;;;5.43;100.00
34482;BME280;20720;48.886;9.388;2024-01-30T00:53:08;99754.16;;;5.36;100.00
34482;BME280;20720;48.886;9.388;2024-01-30T00:55:33;99752.91;;;5.30;100.00
34482;BME280;20720;48.886;9.388;2024-01-30T00:57:59;99752.94;;;5.40;100.00
34482;BME280;20720;48.886;9.388;2024-01-30T01:00:24;99753.59;;;4.82;100.00
34482;BME280;20720;48.886;9.388;2024-01-30T01:02:54;99757.97;;;5.22;100.00
34482;BME280;20720;48.886;9.388;2024-01-30T01:05:20;99759.75;;;4.60;100.00
34482;BME280;20720;48.886;9.388;2024-01-30T01:07:45;99757.22;;;5.11;100.00
34482;BME280;20720;48.886;9.388;2024-01-30T01:10:12;99761.03;;;5.37;100.00
34482;BME280;20720;48.886;9.388;2024-01-30T01:12:39;99759.69;;;4.92;100.00
34482;BME280;20720;48.886;9.388;2024-01-30T01:15:05;99764.56;;;5.06;100.00
34482;BME280;20720;48.886;9.388;2024-01-30T01:17:30;99764.75;;;5.44;100.00
34482;BME280;20720;48.886;9.388;2024-01-30T01:19:55;99760.06;;;5.08;100.00
34482;BME280;20720;48.886;9.388;2024-01-30T01:22:20;99758.50;;;5.26;100.00
34482;BME280;20720;48.886;9.388;2024-01-30T01:24:46;99761.06;;;5.46;100.00
34482;BME280;20720;48.886;9.388;2024-01-30T01:27:11;99757.44;;;4.25;100.00
34482;BME280;20720;48.886;9.388;2024-01-30T01:29:37;99759.94;;;4.89;100.00
34482;BME280;20720;48.886;9.388;2024-01-30T01:32:03;99762.94;;;5.35;100.00
34482;BME280;20720;48.886;9.388;2024-01-30T01:34:28;99755.03;;;5.46;100.00
34482;BME280;20720;48.886;9.388;2024-01-30T01:36:53;99759.31;;;5.47;100.00
34482;BME280;20720;48.886;9.388;2024-01-30T01:39:20;99754.25;;;5.25;100.00
34482;BME280;20720;48.886;9.388;2024-01-30T01:41:46;99755.56;;;4.68;100.00
34482;BME280;20720;48.886;9.388;2024-01-30T01:44:11;99758.50;;;5.26;100.00
34482;BME280;20720;48.886;9.388;2024-01-30T01:46:36;99750.00;;;5.24;100.00
34482;BME280;20720;48.886;9.388;2024-01-30T01:49:02;99744.53;;;5.27;100.00
34482;BME280;20720;48.886;9.388;2024-01-30T01:51:31;99746.53;;;5.14;100.00
34482;BME280;20720;48.886;9.388;2024-01-30T01:53:57;99743.22;;;5.42;100.00
34482;BME280;20720;48.886;9.388;2024-01-30T01:56:25;99750.53;;;5.18;100.00
34482;BME280;20720;48.886;9.388;2024-01-30T01:58:54;99749.72;;;5.27;100.00
34482;BME280;20720;48.886;9.388;2024-01-30T02:01:20;99749.47;;;4.79;100.00
34482;BME280;20720;48.886;9.388;2024-01-30T02:03:46;99751.69;;;4.84;100.00
34482;BME280;20720;48.886;9.388;2024-01-30T02:06:12;99750.47;;;5.08;100.00
34482;BME280;20720;48.886;9.388;2024-01-30T02:08:37;99756.34;;;5.31;100.00
34482;BME280;20720;48.886;9.388;2024-01-30T02:11:03;99761.50;;;5.21;100.00
34482;BME280;20720;48.886;9.388;2024-01-30T02:13:28;99757.84;;;5.03;100.00
34482;BME280;20720;48.886;9.388;2024-01-30T02:15:54;99748.06;;;5.16;100.00
34482;BME280;20720;48.886;9.388;2024-01-30T02:18:20;99761.31;;;5.13;100.00
34482;BME280;20720;48.886;9.388;2024-01-30T02:20:46;99758.81;;;5.32;100.00
34482;BME280;20720;48.886;9.388;2024-01-30T02:23:12;99757.31;;;5.30;100.00
34482;BME280;20720;48.886;9.388;2024-01-30T02:25:39;99757.38;;;5.19;100.00
34482;BME280;20720;48.886;9.388;2024-01-30T02:28:13;99748.25;;;5.04;100.00
34482;BME280;20720;48.886;9.388;2024-01-30T02:30:39;99749.72;;;5.27;100.00
34482;BME280;20720;48.886;9.388;2024-01-30T02:33:04;99750.28;;;5.30;100.00
34482;BME280;20720;48.886;9.388;2024-01-30T02:35:30;99749.00;;;5.15;100.00
34482;BME280;20720;48.886;9.388;2024-01-30T02:37:56;99750.47;;;5.08;100.00
34482;BME280;20720;48.886;9.388;2024-01-30T02:40:21;99753.03;;;4.99;100.00
34482;BME280;20720;48.886;9.388;2024-01-30T02:42:47;99748.25;;;5.04;100.00
34482;BME280;20720;48.886;9.388;2024-01-30T02:45:12;99747.63;;;4.91;100.00
34482;BME280;20720;48.886;9.388;2024-01-30T02:47:38;99751.69;;;4.84;100.00
34482;BME280;20720;48.886;9.388;2024-01-30T02:50:04;99750.94;;;4.72;100.00
34482;BME280;20720;48.886;9.388;2024-01-30T02:52:29;99748.13;;;4.85;100.00
34482;BME280;20720;48.886;9.388;2024-01-30T02:54:55;99750.09;;;4.92;100.00
34482;BME280;20720;48.886;9.388;2024-01-30T02:57:20;99746.16;;;4.77;100.00
34482;BME280;20720;48.886;9.388;2024-01-30T02:59:45;99742.44;;;4.70;100.00
34482;BME280;20720;48.886;9.388;2024-01-30T03:02:10;99743.25;;;4.70;100.00
34482;BME280;20720;48.886;9.388;2024-01-30T03:04:36;99742.19;;;4.94;100.00
34482;BME280;20720;48.886;9.388;2024-01-30T03:07:01;99742.84;;;4.75;100.00
34482;BME280;20720;48.886;9.388;2024-01-30T03:09:27;99745.53;;;4.64;100.00
34482;BME280;20720;48.886;9.388;2024-01-30T03:11:53;99734.94;;;4.76;100.00
34482;BME280;20720;48.886;9.388;2024-01-30T03:14:18;99743.19;;;4.82;100.00
34482;BME280;20720;48.886;9.388;2024-01-30T03:16:44;99739.75;;;4.60;100.00
34482;BME280;20720;48.886;9.388;2024-01-30T03:19:09;99742.16;;;4.52;100.00
34482;BME280;20720;48.886;9.388;2024-01-30T03:21:35;99751.84;;;4.61;100.00
34482;BME280;20720;48.886;9.388;2024-01-30T03:24:00;99752.84;;;4.70;100.00
34482;BME280;20720;48.886;9.388;2024-01-30T03:26:26;99755.63;;;4.57;100.00
34482;BME280;20720;48.886;9.388;2024-01-30T03:28:51;99754.66;;;4.79;100.00
34482;BME280;20720;48.886;9.388;2024-01-30T03:31:16;99754.50;;;4.71;100.00
34482;BME280;20720;48.886;9.388;2024-01-30T03:33:42;99755.31;;;4.71;100.00
34482;BME280;20720;48.886;9.388;2024-01-30T03:36:08;99757.09;;;4.71;100.00
34482;BME280;20720;48.886;9.388;2024-01-30T03:38:33;99757.69;;;4.74;100.00
34482;BME280;20720;48.886;9.388;2024-01-30T03:40:59;99756.19;;;4.61;100.00
34482;BME280;20720;48.886;9.388;2024-01-30T03:43:24;99754.06;;;4.34;100.00
34482;BME280;20720;48.886;9.388;2024-01-30T03:45:50;99753.34;;;4.64;100.00
34482;BME280;20720;48.886;9.388;2024-01-30T03:48:15;99755.00;;;4.65;100.00
34482;BME280;20720;48.886;9.388;2024-01-30T03:50:40;99752.97;;;4.68;100.00
34482;BME280;20720;48.886;9.388;2024-01-30T03:53:06;99748.25;;;4.62;100.00
34482;BME280;20720;48.886;9.388;2024-01-30T03:55:31;99754.34;;;4.31;100.00
34482;BME280;20720;48.886;9.388;2024-01-30T03:57:56;99753.81;;;4.37;100.00
34482;BME280;20720;48.886;9.388;2024-01-30T04:00:22;99756.63;;;4.45;100.00
34482;BME280;20720;48.886;9.388;2024-01-30T04:02:47;99754.16;;;4.44;100.00
34482;BME280;20720;48.886;9.388;2024-01-30T04:05:12;99762.63;;;4.25;100.00
34482;BME280;20720;48.886;9.388;2024-01-30T04:07:37;99761.44;;;4.29;100.00
34482;BME280;20720;48.886;9.388;2024-01-30T04:10:03;99766.81;;;4.37;100.00
34482;BME280;20720;48.886;9.388;2024-01-30T04:12:31;99757.63;;;4.33;100.00
34482;BME280;20720;48.886;9.388;2024-01-30T04:14:56;99762.59;;;4.36;100.00
34482;BME280;20720;48.886;9.388;2024-01-30T04:17:21;99759.69;;;4.19;100.00
34482;BME280;20720;48.886;9.388;2024-01-30T04:19:46;99762.50;;;4.27;100.00
34482;BME280;20720;48.886;9.388;2024-01-30T04:22:12;99764.75;;;4.31;100.00
34482;BME280;20720;48.886;9.388;2024-01-30T04:24:37;99772.16;;;4.36;100.00
34482;BME280;20720;48.886;9.388;2024-01-30T04:27:03;99763.06;;;4.30;100.00
34482;BME280;20720;48.886;9.388;2024-01-30T04:29:29;99762.28;;;4.19;100.00
34482;BME280;20720;48.886;9.388;2024-01-30T04:31:54;99758.78;;;3.98;100.00
34482;BME280;20720;48.886;9.388;2024-01-30T04:34:19;99758.88;;;4.07;100.00
34482;BME280;20720;48.886;9.388;2024-01-30T04:36:44;99755.13;;;4.00;100.00
34482;BME280;20720;48.886;9.388;2024-01-30T04:39:10;99750.91;;;3.88;100.00
34482;BME280;20720;48.886;9.388;2024-01-30T04:41:36;99754.81;;;4.25;100.00
34482;BME280;20720;48.886;9.388;2024-01-30T04:44:01;99753.16;;;4.24;100.00
34482;BME280;20720;48.886;9.388;2024-01-30T04:46:26;99749.44;;;4.06;100.00
34482;BME280;20720;48.886;9.388;2024-01-30T04:48:51;99750.13;;;4.19;100.00
34482;BME280;20720;48.886;9.388;2024-01-30T04:51:17;99751.09;;;4.07;100.00
34482;BME280;20720;48.886;9.388;2024-01-30T04:53:42;99742.84;;;4.02;100.00
34482;BME280;20720;48.886;9.388;2024-01-30T04:56:07;99744.16;;;4.28;100.00
34482;BME280;20720;48.886;9.388;2024-01-30T04:58:32;99740.72;;;4.28;100.00
34482;BME280;20720;48.886;9.388;2024-01-30T05:00:58;99741.44;;;3.98;100.00
34482;BME280;20720;48.886;9.388;2024-01-30T05:03:23;99746.41;;;4.33;100.00
34482;BME280;20720;48.886;9.388;2024-01-30T05:05:49;99746.56;;;4.52;100.00
34482;BME280;20720;48.886;9.388;2024-01-30T05:08:14;99751.56;;;4.64;100.00
34482;BME280;20720;48.886;9.388;2024-01-30T05:10:39;99753.91;;;4.47;100.00
34482;BME280;20720;48.886;9.388;2024-01-30T05:13:05;99750.50;;;4.46;100.00
34482;BME280;20720;48.886;9.388;2024-01-30T05:15:30;99751.00;;;3.98;100.00
34482;BME280;20720;48.886;9.388;2024-01-30T05:17:55;99744.59;;;3.59;100.00
34482;BME280;20720;48.886;9.388;2024-01-30T05:20:20;99750.72;;;3.69;100.00
34482;BME280;20720;48.886;9.388;2024-01-30T05:22:46;99748.03;;;4.02;100.00
34482;BME280;20720;48.886;9.388;2024-01-30T05:25:14;99754.53;;;4.08;100.00
34482;BME280;20720;48.886;9.388;2024-01-30T05:27:39;99755.16;;;3.89;100.00
34482;BME280;20720;48.886;9.388;2024-01-30T05:30:08;99760.78;;;4.16;100.00
34482;BME280;20720;48.886;9.388;2024-01-30T05:32:33;99758.44;;;4.02;100.00
34482;BME280;20720;48.886;9.388;2024-01-30T05:34:59;99766.22;;;4.13;100.00
34482;BME280;20720;48.886;9.388;2024-01-30T05:37:24;99763.81;;;4.21;100.00
34482;BME280;20720;48.886;9.388;2024-01-30T05:39:49;99765.31;;;3.92;100.00
34482;BME280;20720;48.886;9.388;2024-01-30T05:42:15;99772.56;;;4.20;100.00
34482;BME280;20720;48.886;9.388;2024-01-30T05:44:42;99763.53;;;3.93;100.00
34482;BME280;20720;48.886;9.388;2024-01-30T05:47:07;99765.53;;;4.00;100.00
34482;BME280;20720;48.886;9.388;2024-01-30T05:49:32;99770.59;;;4.02;100.00
34482;BME280;20720;48.886;9.388;2024-01-30T05:51:57;99767.59;;;3.86;100.00
34482;BME280;20720;48.886;9.388;2024-01-30T05:54:23;99762.50;;;3.95;100.00
34482;BME280;20720;48.886;9.388;2024-01-30T05:56:48;99765.16;;;4.16;100.00
34482;BME280;20720;48.886;9.388;2024-01-30T05:59:13;99768.03;;;4.33;100.00
34482;BME280;20720;48.886;9.388;2024-01-30T06:01:48;99768.59;;;4.16;100.00
34482;BME280;20720;48.886;9.388;2024-01-30T06:04:14;99768.22;;;4.41;100.00
34482;BME280;20720;48.886;9.388;2024-01-30T06:06:40;99774.41;;;4.09;100.00
34482;BME280;20720;48.886;9.388;2024-01-30T06:09:05;99773.75;;;4.27;100.00
34482;BME280;20720;48.886;9.388;2024-01-30T06:11:31;99782.06;;;4.42;100.00
34482;BME280;20720;48.886;9.388;2024-01-30T06:13:56;99772.25;;;4.45;100.00
34482;BME280;20720;48.886;9.388;2024-01-30T06:16:21;99773.25;;;3.91;100.00
34482;BME280;20720;48.886;9.388;2024-01-30T06:18:47;99767.59;;;3.86;100.00
34482;BME280;20720;48.886;9.388;2024-01-30T06:21:13;99768.75;;;4.24;100.00
34482;BME280;20720;48.886;9.388;2024-01-30T06:23:38;99772.56;;;4.52;100.00
34482;BME280;20720;48.886;9.388;2024-01-30T06:26:04;99762.13;;;4.31;100.00
34482;BME280;20720;48.886;9.388;2024-01-30T06:28:31;99764.38;;;4.56;100.00
34482;BME280;20720;48.886;9.388;2024-01-30T06:30:56;99768.44;;;4.49;100.00
34482;BME280;20720;48.886;9.388;2024-01-30T06:33:21;99765.53;;;4.32;100.00
34482;BME280;20720;48.886;9.388;2024-01-30T06:35:47;99777.94;;;4.08;100.00
34482;BME280;20720;48.886;9.388;2024-01-30T06:38:13;99773.41;;;4.21;100.00
34482;BME280;20720;48.886;9.388;2024-01-30T06:40:38;99783.50;;;4.66;100.00
34482;BME280;20720;48.886;9.388;2024-01-30T06:43:04;99778.59;;;4.52;100.00
34482;BME280;20720;48.886;9.388;2024-01-30T06:45:29;99780.22;;;4.01;100.00
34482;BME280;20720;48.886;9.388;2024-01-30T06:47:55;99777.75;;;4.20;100.00
34482;BME280;20720;48.886;9.388;2024-01-30T06:50:20;99783.97;;;4.40;100.00
34482;BME280;20720;48.886;9.388;2024-01-30T06:52:45;99783.41;;;4.36;100.00
34482;BME280;20720;48.886;9.388;2024-01-30T06:55:11;99781.41;;;4.29;100.00
34482;BME280;20720;48.886;9.388;2024-01-30T06:57:36;99768.97;;;4.32;100.00
34482;BME280;20720;48.886;9.388;2024-01-30T07:00:02;99784.06;;;4.49;100.00
34482;BME280;20720;48.886;9.388;2024-01-30T07:02:27;99777.19;;;4.17;100.00
34482;BME280;20720;48.886;9.388;2024-01-30T07:04:53;99781.06;;;4.22;100.00
34482;BME280;20720;48.886;9.388;2024-01-30T07:07:18;99782.91;;;4.42;100.00
34482;BME280;20720;48.886;9.388;2024-01-30T07:09:43;99789.47;;;4.57;100.00
34482;BME280;20720;48.886;9.388;2024-01-30T07:12:09;99785.47;;;4.53;100.00
34482;BME280;20720;48.886;9.388;2024-01-30T07:14:34;99790.53;;;4.75;100.00
34482;BME280;20720;48.886;9.388;2024-01-30T07:16:59;99782.63;;;4.45;100.00
34482;BME280;20720;48.886;9.388;2024-01-30T07:19:24;99793.78;;;5.09;100.00
34482;BME280;20720;48.886;9.388;2024-01-30T07:21:50;99792.50;;;5.24;100.00
34482;BME280;20720;48.886;9.388;2024-01-30T07:24:15;99791.00;;;5.22;100.00
34482;BME280;20720;48.886;9.388;2024-01-30T07:26:40;99792.34;;;5.46;100.00
34482;BME280;20720;48.886;9.388;2024-01-30T07:29:06;99804.13;;;5.00;100.00
34482;BME280;20720;48.886;9.388;2024-01-30T07:31:31;99799.94;;;5.29;100.00
34482;BME280;20720;48.886;9.388;2024-01-30T07:33:56;99803.03;;;5.23;100.00
34482;BME280;20720;48.886;9.388;2024-01-30T07:36:21;99797.63;;;5.05;100.00
34482;BME280;20720;48.886;9.388;2024-01-30T07:38:47;99802.41;;;5.30;100.00
34482;BME280;20720;48.886;9.388;2024-01-30T07:41:12;99797.84;;;5.53;100.00
34482;BME280;20720;48.886;9.388;2024-01-30T07:43:40;99802.34;;;5.51;100.00
34482;BME280;20720;48.886;9.388;2024-01-30T07:46:05;99800.72;;;5.50;100.00
34482;BME280;20720;48.886;9.388;2024-01-30T07:48:32;99805.56;;;5.64;100.00
34482;BME280;20720;48.886;9.388;2024-01-30T07:50:59;99801.59;;;5.90;100.00
34482;BME280;20720;48.886;9.388;2024-01-30T07:53:25;99800.09;;;5.97;100.00
34482;BME280;20720;48.886;9.388;2024-01-30T07:55:50;99800.97;;;5.77;100.00
34482;BME280;20720;48.886;9.388;2024-01-30T07:58:15;99799.97;;;6.08;100.00
34482;BME280;20720;48.886;9.388;2024-01-30T08:00:41;99800.38;;;6.13;100.00
34482;BME280;20720;48.886;9.388;2024-01-30T08:03:06;99802.50;;;6.38;100.00
34482;BME280;20720;48.886;9.388;2024-01-30T08:05:31;99800.03;;;6.65;100.00
34482;BME280;20720;48.886;9.388;2024-01-30T08:07:57;99804.94;;;6.11;100.00
34482;BME280;20720;48.886;9.388;2024-01-30T08:10:22;99798.00;;;5.91;100.00
34482;BME280;20720;48.886;9.388;2024-01-30T08:12:47;99804.03;;;6.79;100.00
34482;BME280;20720;48.886;9.388;2024-01-30T08:15:13;99796.72;;;7.02;100.00
34482;BME280;20720;48.886;9.388;2024-01-30T08:17:39;99799.72;;;7.07;99.78
34482;BME280;20720;48.886;9.388;2024-01-30T08:20:05;99794.38;;;7.45;98.80
34482;BME280;20720;48.886;9.388;2024-01-30T08:22:30;99794.13;;;7.38;97.15
34482;BME280;20720;48.886;9.388;2024-01-30T08:24:56;99797.03;;;7.72;95.78
34482;BME280;20720;48.886;9.388;2024-01-30T08:27:21;99792.03;;;8.23;93.61
34482;BME280;20720;48.886;9.388;2024-01-30T08:29:46;99808.19;;;8.46;89.92
34482;BME280;20720;48.886;9.388;2024-01-30T08:32:11;99804.75;;;8.45;90.53
34482;BME280;20720;48.886;9.388;2024-01-30T08:34:37;99806.38;;;8.29;90.98
34482;BME280;20720;48.886;9.388;2024-01-30T08:37:02;99806.16;;;8.57;90.69
34482;BME280;20720;48.886;9.388;2024-01-30T08:39:28;99807.34;;;8.98;89.27
34482;BME280;20720;48.886;9.388;2024-01-30T08:41:53;99805.66;;;8.89;88.13
34482;BME280;20720;48.886;9.388;2024-01-30T08:44:19;99804.06;;;9.81;84.69
34482;BME280;20720;48.886;9.388;2024-01-30T08:46:44;99813.31;;;9.93;83.28
34482;BME280;20720;48.886;9.388;2024-01-30T08:49:10;99809.66;;;10.20;81.99
34482;BME280;20720;48.886;9.388;2024-01-30T08:51:35;99812.19;;;10.54;80.29
34482;BME280;20720;48.886;9.388;2024-01-30T08:54:01;99816.16;;;10.82;79.80
34482;BME280;20720;48.886;9.388;2024-01-30T08:56:27;99811.56;;;11.24;78.10
34482;BME280;20720;48.886;9.388;2024-01-30T08:58:52;99808.25;;;11.06;78.48
34482;BME280;20720;48.886;9.388;2024-01-30T09:01:17;99816.47;;;11.19;78.08
34482;BME280;20720;48.886;9.388;2024-01-30T09:03:43;99822.09;;;10.92;79.67
34482;BME280;20720;48.886;9.388;2024-01-30T09:06:10;99817.78;;;11.31;77.92
34482;BME280;20720;48.886;9.388;2024-01-30T09:08:36;99819.88;;;11.52;75.89
34482;BME280;20720;48.886;9.388;2024-01-30T09:11:07;99818.38;;;11.73;76.05
34482;BME280;20720;48.886;9.388;2024-01-30T09:13:33;99812.75;;;12.15;75.35
34482;BME280;20720;48.886;9.388;2024-01-30T09:15:58;99817.47;;;12.27;74.07
34482;BME280;20720;48.886;9.388;2024-01-30T09:18:23;99818.81;;;12.54;73.90
34482;BME280;20720;48.886;9.388;2024-01-30T09:20:49;99819.03;;;12.45;73.50
34482;BME280;20720;48.886;9.388;2024-01-30T09:23:14;99825.84;;;12.84;73.32
34482;BME280;20720;48.886;9.388;2024-01-30T09:25:39;99828.06;;;13.18;72.14
34482;BME280;20720;48.886;9.388;2024-01-30T09:28:05;99825.75;;;13.52;71.18
34482;BME280;20720;48.886;9.388;2024-01-30T09:30:30;99829.69;;;14.00;69.54
34482;BME280;20720;48.886;9.388;2024-01-30T09:32:56;99827.56;;;14.25;68.01
34482;BME280;20720;48.886;9.388;2024-01-30T09:35:21;99829.22;;;13.96;67.64
34482;BME280;20720;48.886;9.388;2024-01-30T09:37:46;99829.03;;;13.98;68.43
34482;BME280;20720;48.886;9.388;2024-01-30T09:40:11;99825.66;;;13.75;69.31
34482;BME280;20720;48.886;9.388;2024-01-30T09:42:37;99829.66;;;13.42;71.18
34482;BME280;20720;48.886;9.388;2024-01-30T09:45:03;99828.63;;;13.28;71.96
34482;BME280;20720;48.886;9.388;2024-01-30T09:47:40;99841.19;;;13.26;72.96
34482;BME280;20720;48.886;9.388;2024-01-30T09:50:08;99832.84;;;13.52;73.04
34482;BME280;20720;48.886;9.388;2024-01-30T09:52:34;99836.47;;;13.36;73.63
34482;BME280;20720;48.886;9.388;2024-01-30T09:55:00;99835.31;;;13.82;72.61
34482;BME280;20720;48.886;9.388;2024-01-30T09:57:26;99841.09;;;14.51;70.50
34482;BME280;20720;48.886;9.388;2024-01-30T09:59:51;99840.66;;;15.10;68.06
34482;BME280;20720;48.886;9.388;2024-01-30T10:02:19;99835.56;;;14.88;67.82
34482;BME280;20720;48.886;9.388;2024-01-30T10:04:45;99833.78;;;15.16;67.01
34482;BME280;20720;48.886;9.388;2024-01-30T10:07:12;99829.63;;;15.07;67.30
34482;BME280;20720;48.886;9.388;2024-01-30T10:09:37;99830.41;;;15.01;67.05
34482;BME280;20720;48.886;9.388;2024-01-30T10:12:03;99838.69;;;14.70;67.94
34482;BME280;20720;48.886;9.388;2024-01-30T10:14:29;99832.13;;;14.31;69.40
34482;BME280;20720;48.886;9.388;2024-01-30T10:16:55;99828.69;;;13.86;70.94
34482;BME280;20720;48.886;9.388;2024-01-30T10:19:20;99831.41;;;14.58;69.88
34482;BME280;20720;48.886;9.388;2024-01-30T10:21:46;99830.59;;;14.99;67.72
34482;BME280;20720;48.886;9.388;2024-01-30T10:24:11;99824.69;;;15.46;65.38
34482;BME280;20720;48.886;9.388;2024-01-30T10:26:39;99824.06;;;15.78;64.39
34482;BME280;20720;48.886;9.388;2024-01-30T10:29:05;99827.66;;;16.05;63.25
34482;BME280;20720;48.886;9.388;2024-01-30T10:31:30;99823.53;;;16.37;62.55
34482;BME280;20720;48.886;9.388;2024-01-30T10:33:56;99819.59;;;17.06;60.65
34482;BME280;20720;48.886;9.388;2024-01-30T10:36:25;99815.94;;;17.33;59.95
34482;BME280;20720;48.886;9.388;2024-01-30T10:38:59;99818.38;;;17.15;59.97
34482;BME280;20720;48.886;9.388;2024-01-30T10:41:27;99815.53;;;16.97;60.86
34482;BME280;20720;48.886;9.388;2024-01-30T10:44:06;99813.88;;;16.96;61.33
34482;BME280;20720;48.886;9.388;2024-01-30T10:46:35;99813.28;;;17.01;61.91
34482;BME280;20720;48.886;9.388;2024-01-30T10:49:02;99807.31;;;16.92;62.34
34482;BME280;20720;48.886;9.388;2024-01-30T10:51:30;99803.63;;;16.60;64.52
34482;BME280;20720;48.886;9.388;2024-01-30T10:53:56;99799.88;;;16.42;65.36
34482;BME280;20720;48.886;9.388;2024-01-30T10:56:22;99800.22;;;16.26;66.25
34482;BME280;20720;48.886;9.388;2024-01-30T10:58:51;99803.16;;;16.44;65.59
34482;BME280;20720;48.886;9.388;2024-01-30T11:01:21;99790.38;;;16.86;64.45
34482;BME280;20720;48.886;9.388;2024-01-30T11:03:51;99792.44;;;17.17;63.27
34482;BME280;20720;48.886;9.388;2024-01-30T11:06:17;99795.50;;;17.14;63.19
34482;BME280;20720;48.886;9.388;2024-01-30T11:08:45;99797.53;;;17.12;63.77
34482;BME280;20720;48.886;9.388;2024-01-30T11:11:11;99797.34;;;17.20;63.30
34482;BME280;20720;48.886;9.388;2024-01-30T11:13:36;99788.75;;;17.18;64.39
34482;BME280;20720;48.886;9.388;2024-01-30T11:16:02;99788.13;;;17.42;63.17
34482;BME280;20720;48.886;9.388;2024-01-30T11:18:32;99786.50;;;16.76;64.93
34482;BME280;20720;48.886;9.388;2024-01-30T11:20:58;99782.25;;;16.28;67.18
34482;BME280;20720;48.886;9.388;2024-01-30T11:23:26;99789.97;;;16.76;66.85
34482;BME280;20720;48.886;9.388;2024-01-30T11:25:56;99778.72;;;16.68;66.74
34482;BME280;20720;48.886;9.388;2024-01-30T11:28:22;99787.19;;;16.37;68.01
34482;BME280;20720;48.886;9.388;2024-01-30T11:30:48;99777.75;;;16.09;70.66
34482;BME280;20720;48.886;9.388;2024-01-30T11:33:27;99782.16;;;15.95;71.62
34482;BME280;20720;48.886;9.388;2024-01-30T11:35:57;99782.16;;;16.49;70.37
34482;BME280;20720;48.886;9.388;2024-01-30T11:38:22;99773.75;;;16.39;70.30
34482;BME280;20720;48.886;9.388;2024-01-30T11:40:51;99772.63;;;17.07;68.07
34482;BME280;20720;48.886;9.388;2024-01-30T11:43:16;99782.00;;;16.96;67.48
34482;BME280;20720;48.886;9.388;2024-01-30T11:45:42;99775.88;;;17.22;66.50
34482;BME280;20720;48.886;9.388;2024-01-30T11:48:11;99778.72;;;16.94;67.98
34482;BME280;20720;48.886;9.388;2024-01-30T11:50:37;99780.38;;;16.95;67.81
34482;BME280;20720;48.886;9.388;2024-01-30T11:53:04;99770.56;;;16.76;67.63
34482;BME280;20720;48.886;9.388;2024-01-30T11:55:29;99770.75;;;16.68;67.94
34482;BME280;20720;48.886;9.388;2024-01-30T11:57:57;99770.56;;;17.15;67.85
34482;BME280;20720;48.886;9.388;2024-01-30T12:00:22;99774.06;;;16.76;67.70
34482;BME280;20720;48.886;9.388;2024-01-30T12:02:52;99768.03;;;16.42;69.04
34482;BME280;20720;48.886;9.388;2024-01-30T12:05:20;99768.72;;;16.83;68.17
34482;BME280;20720;48.886;9.388;2024-01-30T12:07:46;99754.63;;;17.15;66.88
34482;BME280;20720;48.886;9.388;2024-01-30T12:10:12;99756.47;;;17.08;66.91
34482;BME280;20720;48.886;9.388;2024-01-30T12:12:39;99757.09;;;17.04;66.77
34482;BME280;20720;48.886;9.388;2024-01-30T12:15:07;99751.34;;;17.26;66.82
34482;BME280;20720;48.886;9.388;2024-01-30T12:17:33;99748.44;;;17.60;65.83
34482;BME280;20720;48.886;9.388;2024-01-30T12:20:04;99746.22;;;17.44;65.49
34482;BME280;20720;48.886;9.388;2024-01-30T12:22:32;99746.00;;;17.39;65.84
34482;BME280;20720;48.886;9.388;2024-01-30T12:24:58;99744.91;;;17.79;64.15
34482;BME280;20720;48.886;9.388;2024-01-30T12:27:23;99746.31;;;17.82;63.99
34482;BME280;20720;48.886;9.388;2024-01-30T12:29:55;99741.28;;;17.54;64.11
34482;BME280;20720;48.886;9.388;2024-01-30T12:32:22;99735.34;;;17.65;62.93
34482;BME280;20720;48.886;9.388;2024-01-30T12:34:48;99734.75;;;17.44;61.49
34482;BME280;20720;48.886;9.388;2024-01-30T12:37:13;99738.63;;;17.54;61.52
34482;BME280;20720;48.886;9.388;2024-01-30T12:39:38;99732.09;;;17.57;60.09
34482;BME280;20720;48.886;9.388;2024-01-30T12:42:04;99726.22;;;17.22;60.17
34482;BME280;20720;48.886;9.388;2024-01-30T12:44:29;99729.03;;;17.53;58.73
34482;BME280;20720;48.886;9.388;2024-01-30T12:46:55;99731.69;;;17.53;58.13
34482;BME280;20720;48.886;9.388;2024-01-30T12:49:20;99733.53;;;17.59;59.22
34482;BME280;20720;48.886;9.388;2024-01-30T12:51:46;99734.66;;;18.21;57.79
34482;BME280;20720;48.886;9.388;2024-01-30T12:54:12;99725.13;;;18.75;56.42